Søk
Bilder fra klubbens virksomhet
Tooltip
Soloflygninger
Tooltip
Espen Wiik har fløyet solo
Tooltip
Rashad Habib har fløyet solo
Tooltip
David Froholt har fløyet solo
Tooltip
Leif Olsen er pilot
  • Tilfeldig bilde
     
    Opplastet 21-02-2010
    Opplastet 04-09-2011
    Opplastet 12-05-2008
     
  • Siste bilde
     
    Opplastet 27-07-2018
    Opplastet 05-06-2018
    Opplastet 31-10-2017
     
«StartForrige1234NesteSiste»
Side 1 av 4
 
 
METAR
2020/08/07 03:20 ENCN 070320Z AUTO 06003KT 9999 OVC048/// 16/15 Q1022
TAF
2020/08/07 03:37 TAF ENCN 070200Z 0703/0712 05005KT 9999 BKN045
LN-KFK
Operativ VFR-natt
VFR dag
04:43 - 22:22
Brannvakt
Inaktiv
Banner
Banner
Banner
Banner
Banner